KBZN

Bozeman Yellowstone International Airport

Bozeman, Montana, USA
METAR KBZN 231056Z AUTO 09003KT 10SM FEW080 BKN110 09/08 A2996 RMK AO2 SLP127 T00890078
Observed Flight Rules
May-23 @ 10:56 UTC (21 minutes ago) Visual Flight Rules
Wind Visibility Clouds
90° at 3 knots 10 miles
  • Few at 8,000' AGL
  • Broken at 11,000' AGL
Temperatures Readings
Current 9°C / 48°F
Dewpoint 8°C / 46°F
Humidity 94%
Altimeter 29.96" Hg
Pressure 1012.7 hPa
Elevation 1361
METAR KBZN 231056Z AUTO 09003KT 10SM FEW080 BKN110 09/08 A2996 RMK AO2 SLP127 T00890078
Observed Flight Rules
May-23 @ 10:56 UTC
(21 minutes ago)
VFR
Wind Visibility
90° at 3 knots 10 miles
Clouds
  • Few at 8,000' AGL
  • Broken at 11,000' AGL
Temperature Dewpoint
9°C / 48°F 8°C / 46°F
Humidity Altimeter Pressure
94% 29.96" Hg 1012.7 hPa